createdAt,value
2018-08-23T00:01:25.992Z,95500.58
2018-08-23T00:03:57.202Z,95505.97
2018-08-23T00:06:27.429Z,95501.41
2018-08-23T00:08:58.794Z,95497.81
2018-08-23T00:11:31.190Z,95487.33
2018-08-23T00:14:01.104Z,95490.42
2018-08-23T00:16:36.495Z,95489.84
2018-08-23T00:19:06.272Z,95492.08
2018-08-23T00:21:41.341Z,95493.14
2018-08-23T00:24:19.083Z,95489.31
2018-08-23T00:26:51.065Z,95483.56
2018-08-23T00:29:25.791Z,95486.74
2018-08-23T00:32:01.084Z,95485.70
2018-08-23T00:34:35.231Z,95488.17
2018-08-23T00:37:06.601Z,95485.51
2018-08-23T00:40:11.704Z,95491.45
2018-08-23T00:42:41.574Z,95488.68
2018-08-23T00:45:18.138Z,95488.73
2018-08-23T00:47:48.001Z,95489.05
2018-08-23T00:50:28.316Z,95481.06
2018-08-23T00:52:58.067Z,95474.66
2018-08-23T00:55:31.408Z,95478.19
2018-08-23T00:58:01.223Z,95477.75
2018-08-23T01:00:31.047Z,95471.89
2018-08-23T01:03:03.712Z,95466.92
2018-08-23T01:05:39.766Z,95472.70
2018-08-23T01:08:10.355Z,95469.08
2018-08-23T01:10:41.059Z,95470.83
2018-08-23T01:13:10.817Z,95473.28
2018-08-23T01:15:43.894Z,95467.91
2018-08-23T01:18:20.529Z,95471.09
2018-08-23T01:20:51.829Z,95469.76
2018-08-23T01:23:22.879Z,95473.09
2018-08-23T01:25:53.083Z,95475.63
2018-08-23T01:28:22.874Z,95481.83
2018-08-23T01:30:52.653Z,95481.83
2018-08-23T01:33:23.223Z,95480.53
2018-08-23T01:35:53.972Z,95477.18
2018-08-23T01:38:24.054Z,95476.98
2018-08-23T01:40:59.645Z,95476.56
2018-08-23T01:43:29.392Z,95476.70
2018-08-23T01:46:00.139Z,95470.38
2018-08-23T01:48:30.346Z,95472.20
2018-08-23T01:51:00.190Z,95475.14
2018-08-23T01:53:44.138Z,95477.25
2018-08-23T01:56:13.906Z,95474.44
2018-08-23T01:58:44.488Z,95470.60
2018-08-23T02:01:18.038Z,95472.30
2018-08-23T02:03:47.935Z,95471.78
2018-08-23T02:06:18.542Z,95475.56
2018-08-23T02:08:48.552Z,95477.57
2018-08-23T02:11:18.376Z,95479.08
2018-08-23T02:13:49.899Z,95482.30
2018-08-23T02:16:20.345Z,95478.26
2018-08-23T02:18:50.212Z,95484.98
2018-08-23T02:21:20.000Z,95483.02
2018-08-23T02:23:53.296Z,95489.89
2018-08-23T02:26:23.641Z,95483.37
2018-08-23T02:28:53.539Z,95482.34
2018-08-23T02:31:23.562Z,95480.97
2018-08-23T02:33:53.354Z,95483.19
2018-08-23T02:36:24.255Z,95479.80
2018-08-23T02:39:02.423Z,95489.34
2018-08-23T02:41:32.485Z,95487.08
2018-08-23T02:44:02.168Z,95483.94
2018-08-23T02:46:33.882Z,95478.08
2018-08-23T02:49:03.600Z,95485.27
2018-08-23T02:51:38.735Z,95488.23
2018-08-23T02:54:11.613Z,95480.92
2018-08-23T02:56:46.690Z,95485.55
2018-08-23T02:59:16.476Z,95486.14
2018-08-23T03:01:47.384Z,95486.36
2018-08-23T03:04:24.136Z,95472.77
2018-08-23T03:06:58.032Z,95479.84
2018-08-23T03:09:31.633Z,95484.05
2018-08-23T03:12:02.797Z,95485.50
2018-08-23T03:14:32.609Z,95485.00
2018-08-23T03:17:32.065Z,95486.41
2018-08-23T03:20:12.715Z,95484.39
2018-08-23T03:22:43.143Z,95484.03
2018-08-23T03:25:14.322Z,95481.64
2018-08-23T03:27:44.108Z,95484.79
2018-08-23T03:30:15.229Z,95486.77
2018-08-23T03:32:44.873Z,95494.44
2018-08-23T03:35:15.916Z,95495.17
2018-08-23T03:37:45.796Z,95498.83
2018-08-23T03:40:17.349Z,95498.39
2018-08-23T03:42:47.217Z,95504.61
2018-08-23T03:45:22.591Z,95506.27
2018-08-23T03:47:53.690Z,95506.75
2018-08-23T03:50:23.555Z,95503.94
2018-08-23T03:52:54.643Z,95507.78
2018-08-23T03:55:26.665Z,95507.78
2018-08-23T03:58:03.232Z,95515.12
2018-08-23T04:00:38.020Z,95522.13
2018-08-23T04:03:13.768Z,95527.16
2018-08-23T04:05:43.922Z,95519.48
2018-08-23T04:08:13.708Z,95519.93
2018-08-23T04:10:43.593Z,95527.11
2018-08-23T04:13:13.468Z,95526.23
2018-08-23T04:15:43.293Z,95526.01
2018-08-23T04:18:17.962Z,95535.22
2018-08-23T04:20:54.970Z,95528.38
2018-08-23T04:23:24.879Z,95527.01
2018-08-23T04:25:55.186Z,95527.45
2018-08-23T04:28:25.088Z,95525.66
2018-08-23T04:30:54.923Z,95530.94
2018-08-23T04:33:24.665Z,95533.65
2018-08-23T04:35:54.792Z,95530.03
2018-08-23T04:38:24.659Z,95538.30
2018-08-23T04:41:07.831Z,95528.66
2018-08-23T04:43:38.375Z,95523.66
2018-08-23T04:46:12.460Z,95527.55
2018-08-23T04:48:42.302Z,95522.95
2018-08-23T04:51:12.200Z,95523.95
2018-08-23T04:53:42.081Z,95521.81
2018-08-23T04:56:13.559Z,95521.37
2018-08-23T04:58:43.489Z,95530.06
2018-08-23T05:01:13.455Z,95528.90
2018-08-23T05:03:43.206Z,95527.36
2018-08-23T05:06:13.165Z,95532.52
2018-08-23T05:08:42.963Z,95526.88
2018-08-23T05:11:12.826Z,95522.86
2018-08-23T05:13:42.732Z,95524.38
2018-08-23T05:16:12.539Z,95517.82
2018-08-23T05:18:42.658Z,95525.41
2018-08-23T05:21:14.682Z,95524.75
2018-08-23T05:23:44.591Z,95532.75
2018-08-23T05:26:21.036Z,95523.74
2018-08-23T05:29:03.181Z,95527.70
2018-08-23T05:31:34.072Z,95523.98
2018-08-23T05:34:07.359Z,95529.27
2018-08-23T05:36:38.336Z,95523.87
2018-08-23T05:39:10.954Z,95523.06
2018-08-23T05:41:41.196Z,95520.28
2018-08-23T05:44:16.639Z,95521.33
2018-08-23T05:46:53.365Z,95523.89
2018-08-23T05:49:23.157Z,95514.94
2018-08-23T05:52:00.431Z,95517.31
2018-08-23T05:54:30.278Z,95513.77
2018-08-23T05:57:00.392Z,95514.42
2018-08-23T05:59:30.286Z,95511.78
2018-08-23T06:02:00.086Z,95508.28
2018-08-23T06:04:43.390Z,95510.06
2018-08-23T06:07:14.420Z,95498.44
2018-08-23T06:09:44.444Z,95502.78
2018-08-23T06:12:14.222Z,95498.14
2018-08-23T06:14:43.945Z,95499.27
2018-08-23T06:17:13.997Z,95497.43
2018-08-23T06:19:43.779Z,95492.48
2018-08-23T06:22:13.607Z,95488.94
2018-08-23T06:24:43.408Z,95492.45
2018-08-23T06:27:13.267Z,95485.14
2018-08-23T06:29:43.338Z,95485.39
2018-08-23T06:32:13.300Z,95479.05
2018-08-23T06:34:57.279Z,95482.57
2018-08-23T06:37:27.323Z,95482.47
2018-08-23T06:39:57.106Z,95478.45
2018-08-23T06:42:43.020Z,95483.30
2018-08-23T06:45:12.948Z,95477.87
2018-08-23T06:47:46.695Z,95480.23
2018-08-23T06:50:16.670Z,95485.77
2018-08-23T06:52:50.438Z,95481.56
2018-08-23T06:55:26.024Z,95480.55
2018-08-23T06:58:00.087Z,95477.41
2018-08-23T07:00:29.872Z,95484.16
2018-08-23T07:03:05.377Z,95478.59
2018-08-23T07:05:35.204Z,95484.00
2018-08-23T07:08:05.335Z,95481.40
2018-08-23T07:10:36.124Z,95474.63
2018-08-23T07:13:06.511Z,95473.83
2018-08-23T07:15:36.262Z,95474.30
2018-08-23T07:18:10.630Z,95467.84
2018-08-23T07:20:40.537Z,95467.83
2018-08-23T07:23:19.890Z,95462.16
2018-08-23T07:25:49.632Z,95457.02
2018-08-23T07:28:20.077Z,95459.17
2018-08-23T07:30:49.778Z,95460.00
2018-08-23T07:33:19.603Z,95445.91
2018-08-23T07:35:54.724Z,95448.13
2018-08-23T07:38:24.533Z,95450.06
2018-08-23T07:40:54.284Z,95443.42
2018-08-23T07:43:24.629Z,95443.59
2018-08-23T07:45:54.506Z,95444.62
2018-08-23T07:48:24.179Z,95443.75
2018-08-23T07:50:53.968Z,95436.20
2018-08-23T07:53:24.005Z,95431.12
2018-08-23T07:55:53.902Z,95429.34
2018-08-23T07:58:23.607Z,95434.18
2018-08-23T08:00:53.453Z,95432.05
2018-08-23T08:03:23.218Z,95419.47
2018-08-23T08:05:53.020Z,95427.13
2018-08-23T08:08:22.752Z,95415.98
2018-08-23T08:10:52.610Z,95417.06
2018-08-23T08:13:22.499Z,95415.52
2018-08-23T08:15:52.283Z,95423.77
2018-08-23T08:18:24.576Z,95424.58
2018-08-23T08:21:03.715Z,95415.88
2018-08-23T08:23:34.360Z,95415.66
2018-08-23T08:26:04.832Z,95413.92
2018-08-23T08:28:34.515Z,95410.99
2018-08-23T08:31:04.387Z,95409.11
2018-08-23T08:33:36.535Z,95414.13
2018-08-23T08:36:07.574Z,95405.64
2018-08-23T08:38:37.763Z,95399.84
2018-08-23T08:41:07.607Z,95400.20
2018-08-23T08:43:37.754Z,95397.64
2018-08-23T08:46:07.844Z,95393.23
2018-08-23T08:48:37.564Z,95390.36
2018-08-23T08:51:32.793Z,95385.26
2018-08-23T08:54:04.168Z,95384.39
2018-08-23T08:56:41.807Z,95382.94
2018-08-23T08:59:11.622Z,95376.42
2018-08-23T09:01:41.507Z,95381.22
2018-08-23T09:04:15.307Z,95377.80
2018-08-23T09:06:46.599Z,95366.87
2018-08-23T09:09:24.398Z,95375.25
2018-08-23T09:11:54.156Z,95371.83
2018-08-23T09:14:24.364Z,95361.30
2018-08-23T09:16:54.243Z,95370.09
2018-08-23T09:19:28.469Z,95365.33
2018-08-23T09:22:07.339Z,95359.56
2018-08-23T09:24:38.309Z,95362.80
2018-08-23T09:27:17.562Z,95357.58
2018-08-23T09:29:47.469Z,95356.55
2018-08-23T09:32:22.433Z,95355.79
2018-08-23T09:34:57.644Z,95351.52
2018-08-23T09:37:28.194Z,95350.53
2018-08-23T09:39:57.942Z,95343.41
2018-08-23T09:42:31.682Z,95349.55
2018-08-23T09:45:12.076Z,95340.79
2018-08-23T09:47:41.943Z,95347.95
2018-08-23T09:50:11.831Z,95343.23
2018-08-23T09:52:43.196Z,95334.26
2018-08-23T09:55:14.951Z,95334.29
2018-08-23T09:57:45.539Z,95329.49
2018-08-23T10:01:18.248Z,95327.13
2018-08-23T10:03:53.067Z,95321.25
2018-08-23T10:06:23.497Z,95326.13
2018-08-23T10:09:09.277Z,95321.63
2018-08-23T10:11:44.083Z,95318.78
2018-08-23T10:14:17.818Z,95309.16
2018-08-23T10:16:52.582Z,95311.02
2018-08-23T10:19:27.467Z,95308.64
2018-08-23T10:22:03.470Z,95304.48
2018-08-23T10:24:35.246Z,95291.48
2018-08-23T10:27:05.158Z,95287.27
2018-08-23T10:29:34.958Z,95283.81
2018-08-23T10:32:05.326Z,95287.07
2018-08-23T10:34:35.057Z,95279.30
2018-08-23T10:37:05.061Z,95281.12
2018-08-23T10:39:34.634Z,95277.14
2018-08-23T10:42:04.597Z,95271.34
2018-08-23T10:44:34.539Z,95276.48
2018-08-23T10:47:04.972Z,95205.01
2018-08-23T10:49:34.810Z,95275.27
2018-08-23T10:52:04.582Z,95268.87
2018-08-23T10:54:34.345Z,95264.45
2018-08-23T10:57:04.320Z,95265.94
2018-08-23T10:59:34.086Z,95254.36
2018-08-23T11:02:04.424Z,95249.58
2018-08-23T11:04:34.317Z,95243.75
2018-08-23T11:07:04.121Z,95248.20
2018-08-23T11:09:39.038Z,95238.02
2018-08-23T11:12:14.301Z,95239.14
2018-08-23T11:14:43.997Z,95237.35
2018-08-23T11:17:18.845Z,95225.50
2018-08-23T11:19:53.576Z,95220.77
2018-08-23T11:22:27.685Z,95217.47
2018-08-23T11:24:57.499Z,95216.77
2018-08-23T11:27:27.335Z,95222.34
2018-08-23T11:29:57.209Z,95217.11
2018-08-23T11:32:26.997Z,95212.05
2018-08-23T11:34:56.858Z,95209.16
2018-08-23T11:37:26.580Z,95198.64
2018-08-23T11:39:56.317Z,95202.16
2018-08-23T11:42:25.940Z,95201.38
2018-08-23T11:44:55.633Z,95199.73
2018-08-23T11:47:26.015Z,95198.16
2018-08-23T11:49:55.964Z,95190.38
2018-08-23T11:52:25.777Z,95191.66
2018-08-23T11:54:55.663Z,95189.67
2018-08-23T11:57:25.497Z,95190.11
2018-08-23T11:59:55.451Z,95186.13
2018-08-23T12:02:25.266Z,95188.56
2018-08-23T12:04:55.088Z,95180.72
2018-08-23T12:07:24.907Z,95178.23
2018-08-23T12:09:54.932Z,95180.48
2018-08-23T12:12:24.817Z,95181.18
2018-08-23T12:14:55.977Z,95187.34
2018-08-23T12:17:25.889Z,95180.02
2018-08-23T12:19:55.752Z,95178.50
2018-08-23T12:22:57.001Z,95176.26
2018-08-23T12:25:26.851Z,95167.80
2018-08-23T12:27:58.109Z,95174.52
2018-08-23T12:30:27.926Z,95164.05
2018-08-23T12:32:57.772Z,95169.84
2018-08-23T12:35:28.178Z,95161.89
2018-08-23T12:38:03.519Z,95167.00
2018-08-23T12:40:38.836Z,95163.60
2018-08-23T12:43:11.284Z,95154.50
2018-08-23T12:45:44.250Z,95153.98
2018-08-23T12:48:15.488Z,95150.36
2018-08-23T12:50:45.788Z,95155.00
2018-08-23T12:53:15.654Z,95151.38
2018-08-23T12:55:45.478Z,95144.02
2018-08-23T12:58:15.139Z,95142.95
2018-08-23T13:00:44.833Z,95143.52
2018-08-23T13:03:14.561Z,95140.63
2018-08-23T13:05:44.382Z,95131.24
2018-08-23T13:08:14.138Z,95133.81
2018-08-23T13:10:43.899Z,95127.83
2018-08-23T13:13:13.660Z,95123.11
2018-08-23T13:15:43.480Z,95139.70
2018-08-23T13:18:13.254Z,95135.08
2018-08-23T13:20:43.073Z,95139.92
2018-08-23T13:23:12.817Z,95126.90
2018-08-23T13:25:47.729Z,95128.50
2018-08-23T13:28:17.544Z,95130.88
2018-08-23T13:30:48.485Z,95130.64
2018-08-23T13:33:18.331Z,95136.71
2018-08-23T13:35:48.084Z,95133.38
2018-08-23T13:38:18.157Z,95134.03
2018-08-23T13:40:48.700Z,95125.08
2018-08-23T13:43:18.672Z,95117.20
2018-08-23T13:45:48.383Z,95119.75
2018-08-23T13:48:18.931Z,95118.62
2018-08-23T13:50:49.022Z,95111.69
2018-08-23T13:53:18.857Z,95114.29
2018-08-23T13:55:48.873Z,95112.42
2018-08-23T13:58:18.570Z,95118.27
2018-08-23T14:00:49.036Z,95117.48
2018-08-23T14:03:19.035Z,95115.78
2018-08-23T14:05:48.737Z,95115.48
2018-08-23T14:08:18.609Z,95117.92
2018-08-23T14:10:48.486Z,95115.66
2018-08-23T14:13:18.281Z,95116.64
2018-08-23T14:15:53.025Z,95110.30
2018-08-23T14:18:22.823Z,95109.57
2018-08-23T14:20:53.369Z,95100.30
2018-08-23T14:23:23.023Z,95106.17
2018-08-23T14:25:52.676Z,95107.33
2018-08-23T14:28:22.521Z,95103.98
2018-08-23T14:30:52.429Z,95100.33
2018-08-23T14:33:22.111Z,95098.59
2018-08-23T14:35:51.913Z,95085.65
2018-08-23T14:38:21.656Z,95097.76
2018-08-23T14:40:51.598Z,95103.52
2018-08-23T14:43:21.397Z,95099.64
2018-08-23T14:45:51.273Z,95101.08
2018-08-23T14:48:21.961Z,95097.69
2018-08-23T14:50:53.189Z,95105.81
2018-08-23T14:53:31.101Z,95104.34
2018-08-23T14:56:05.956Z,95113.66
2018-08-23T14:58:35.781Z,95105.30
2018-08-23T15:01:05.573Z,95101.81
2018-08-23T15:03:35.390Z,95109.47
2018-08-23T15:06:05.167Z,95106.66
2018-08-23T15:08:50.435Z,95107.78
2018-08-23T15:11:20.909Z,95104.20
2018-08-23T15:13:50.675Z,95107.88
2018-08-23T15:16:20.434Z,95108.41
2018-08-23T15:18:50.085Z,95109.10
2018-08-23T15:21:19.753Z,95108.41
2018-08-23T15:23:49.650Z,95109.75
2018-08-23T15:26:19.626Z,95107.73
2018-08-23T15:28:49.389Z,95103.19
2018-08-23T15:31:19.220Z,95105.63
2018-08-23T15:33:48.860Z,95099.28
2018-08-23T15:36:18.758Z,95099.06
2018-08-23T15:38:48.607Z,95099.53
2018-08-23T15:41:19.005Z,95100.01
2018-08-23T15:43:48.802Z,95095.81
2018-08-23T15:46:18.571Z,95096.05
2018-08-23T15:48:48.494Z,95096.06
2018-08-23T15:51:18.098Z,95088.27
2018-08-23T15:53:47.857Z,95096.41
2018-08-23T15:56:17.570Z,95092.39
2018-08-23T15:58:47.172Z,95098.86
2018-08-23T16:01:17.051Z,95101.02
2018-08-23T16:03:46.932Z,95103.67
2018-08-23T16:06:16.835Z,95099.34
2018-08-23T16:08:51.625Z,95100.92
2018-08-23T16:11:24.154Z,95091.80
2018-08-23T16:13:54.584Z,95096.73
2018-08-23T16:16:29.373Z,95096.98
2018-08-23T16:19:04.200Z,95099.63
2018-08-23T16:21:35.414Z,95103.73
2018-08-23T16:26:38.899Z,95114.06
2018-08-23T16:29:09.597Z,95116.63
2018-08-23T16:31:40.570Z,95120.10
2018-08-23T16:34:10.412Z,95117.66
2018-08-23T16:36:40.282Z,95119.95
2018-08-23T16:39:10.310Z,95117.72
2018-08-23T16:41:41.661Z,95120.34
2018-08-23T16:44:11.567Z,95113.66
2018-08-23T16:46:41.495Z,95120.20
2018-08-23T16:49:11.516Z,95118.83
2018-08-23T16:51:42.369Z,95122.55
2018-08-23T16:54:12.058Z,95116.41
2018-08-23T16:56:41.966Z,95120.14
2018-08-23T16:59:11.700Z,95126.67
2018-08-23T17:01:41.744Z,95124.67
2018-08-23T17:08:00.097Z,95135.20
2018-08-23T17:10:29.940Z,95138.40
2018-08-23T17:12:59.880Z,95136.49
2018-08-23T17:15:34.784Z,95142.52
2018-08-23T17:18:04.771Z,95147.84
2018-08-23T17:20:34.495Z,95153.48
2018-08-23T17:23:04.355Z,95155.45
2018-08-23T17:25:35.307Z,95160.49
2018-08-23T17:28:05.095Z,95160.90
2018-08-23T17:30:34.927Z,95163.04
2018-08-23T17:33:04.831Z,95167.75
2018-08-23T17:35:36.041Z,95180.91
2018-08-23T17:38:05.928Z,95178.93
2018-08-23T17:40:35.819Z,95189.04
2018-08-23T17:43:05.530Z,95191.44
2018-08-23T17:45:36.349Z,95195.48
2018-08-23T17:48:06.201Z,95194.25
2018-08-23T17:50:36.154Z,95201.09
2018-08-23T17:53:06.686Z,95204.41
2018-08-23T17:55:37.408Z,95211.35
2018-08-23T17:58:07.184Z,95206.59
2018-08-23T18:00:37.196Z,95216.34
2018-08-23T18:03:07.427Z,95215.08
2018-08-23T18:05:37.674Z,95221.33
2018-08-23T18:08:07.702Z,95223.44
2018-08-23T18:10:37.493Z,95224.89
2018-08-23T18:13:07.258Z,95226.98
2018-08-23T18:15:41.977Z,95239.41
2018-08-23T18:18:11.864Z,95232.53
2018-08-23T18:20:41.751Z,95231.22
2018-08-23T18:23:11.587Z,95235.20
2018-08-23T18:25:41.998Z,95235.06
2018-08-23T18:28:11.644Z,95234.84
2018-08-23T18:30:41.283Z,95233.67
2018-08-23T18:33:11.069Z,95237.92
2018-08-23T18:35:40.802Z,95241.33
2018-08-23T18:38:10.769Z,95243.80
2018-08-23T18:40:40.748Z,95239.63
2018-08-23T18:43:10.672Z,95240.02
2018-08-23T18:45:40.525Z,95246.09
2018-08-23T18:48:10.129Z,95252.28
2018-08-23T18:50:39.921Z,95257.98
2018-08-23T18:53:09.694Z,95252.77
2018-08-23T18:55:39.618Z,95253.43
2018-08-23T18:58:09.735Z,95252.11
2018-08-23T19:00:39.549Z,95256.50
2018-08-23T19:03:09.366Z,95249.59
2018-08-23T19:05:39.335Z,95257.95
2018-08-23T19:08:09.388Z,95256.47
2018-08-23T19:10:39.119Z,95256.77
2018-08-23T19:13:08.937Z,95258.60
2018-08-23T19:15:43.698Z,95263.92
2018-08-23T19:18:14.709Z,95261.89
2018-08-23T19:20:44.378Z,95263.66
2018-08-23T19:23:14.331Z,95265.36
2018-08-23T19:25:45.090Z,95264.30
2018-08-23T19:28:14.880Z,95264.75
2018-08-23T19:30:44.706Z,95264.34
2018-08-23T19:33:14.588Z,95280.00
2018-08-23T19:35:45.155Z,95273.47
2018-08-23T19:38:15.022Z,95276.46
2018-08-23T19:40:44.760Z,95280.57
2018-08-23T19:43:14.597Z,95284.53
2018-08-23T19:45:49.528Z,95285.03
2018-08-23T19:48:19.312Z,95286.06
2018-08-23T19:50:49.943Z,95286.28
2018-08-23T19:53:19.810Z,95294.73
2018-08-23T19:55:50.596Z,95291.59
2018-08-23T19:58:20.434Z,95295.09
2018-08-23T20:00:50.231Z,95297.85
2018-08-23T20:03:20.069Z,95300.43
2018-08-23T20:05:50.235Z,95293.01
2018-08-23T20:08:20.073Z,95291.51
2018-08-23T20:10:49.899Z,95292.17
2018-08-23T20:13:19.785Z,95299.41
2018-08-23T20:15:49.639Z,95302.05
2018-08-23T20:18:19.297Z,95290.00
2018-08-23T20:20:49.175Z,95293.64
2018-08-23T20:23:18.721Z,95296.48
2018-08-23T20:25:49.120Z,95296.64
2018-08-23T20:28:19.312Z,95296.91
2018-08-23T20:30:49.162Z,95302.53
2018-08-23T20:33:19.017Z,95307.19
2018-08-23T20:35:49.270Z,95304.80
2018-08-23T20:38:19.941Z,95308.56
2018-08-23T20:40:49.819Z,95309.08
2018-08-23T20:43:19.623Z,95308.59
2018-08-23T20:45:50.104Z,95307.38
2018-08-23T20:48:19.871Z,95316.81
2018-08-23T20:50:49.668Z,95308.45
2018-08-23T20:53:19.693Z,95310.70
2018-08-23T20:55:50.009Z,95308.13
2018-08-23T20:58:19.748Z,95310.66
2018-08-23T21:00:49.591Z,95315.08
2018-08-23T21:03:19.547Z,95310.20
2018-08-23T21:05:50.359Z,95312.27
2018-08-23T21:08:20.230Z,95318.00
2018-08-23T21:10:50.115Z,95314.33
2018-08-23T21:13:20.054Z,95315.98
2018-08-23T21:15:51.867Z,95312.23
2018-08-23T21:18:21.693Z,95313.60
2018-08-23T21:20:51.449Z,95318.75
2018-08-23T21:23:21.223Z,95322.45
2018-08-23T21:25:51.061Z,95321.17
2018-08-23T21:28:20.826Z,95318.89
2018-08-23T21:30:50.657Z,95321.86
2018-08-23T21:33:20.501Z,95324.77
2018-08-23T21:35:50.308Z,95322.94
2018-08-23T21:38:20.079Z,95322.49
2018-08-23T21:40:50.070Z,95325.86
2018-08-23T21:43:19.894Z,95318.25
2018-08-23T21:45:49.597Z,95320.77
2018-08-23T21:48:19.473Z,95316.52
2018-08-23T21:50:49.394Z,95315.63
2018-08-23T21:53:19.427Z,95311.05
2018-08-23T21:55:49.428Z,95313.06
2018-08-23T21:58:19.327Z,95309.56
2018-08-23T22:00:55.038Z,95307.61
2018-08-23T22:03:25.133Z,95315.68
2018-08-23T22:05:55.723Z,95307.30
2018-08-23T22:08:25.637Z,95312.48
2018-08-23T22:10:55.623Z,95311.63
2018-08-23T22:13:25.746Z,95314.89
2018-08-23T22:15:55.548Z,95306.14
2018-08-23T22:18:25.430Z,95308.63
2018-08-23T22:20:55.270Z,95310.11
2018-08-23T22:23:25.051Z,95323.39
2018-08-23T22:25:54.926Z,95091.82
2018-08-23T22:28:24.790Z,95317.97
2018-08-23T22:33:45.369Z,95320.11
2018-08-23T22:36:15.652Z,95317.97
2018-08-23T22:38:45.547Z,95314.52
2018-08-23T22:41:16.602Z,95314.05
2018-08-23T22:43:46.539Z,95315.45
2018-08-23T22:46:17.396Z,95315.73
2018-08-23T22:48:47.178Z,95309.62
2018-08-23T22:51:17.010Z,95306.20
2018-08-23T22:53:46.814Z,95312.38
2018-08-23T22:56:16.985Z,95312.20
2018-08-23T22:58:46.659Z,95305.80
2018-08-23T23:01:16.494Z,95305.80
2018-08-23T23:04:49.138Z,95304.16
2018-08-23T23:07:18.982Z,95304.48
2018-08-23T23:09:48.771Z,95303.98
2018-08-23T23:12:18.731Z,95297.34
2018-08-23T23:14:48.540Z,95296.88
2018-08-23T23:18:21.315Z,95293.20
2018-08-23T23:20:51.188Z,95295.50
2018-08-23T23:23:21.060Z,95296.57
2018-08-23T23:25:50.932Z,95290.83
2018-08-23T23:28:20.807Z,95293.23
2018-08-23T23:30:51.515Z,95287.59
2018-08-23T23:33:21.239Z,95286.64
2018-08-23T23:35:51.027Z,95285.16
2018-08-23T23:38:20.998Z,95282.03
2018-08-23T23:40:50.780Z,95280.20
2018-08-23T23:43:20.661Z,95273.42
2018-08-23T23:45:50.490Z,95274.98
2018-08-23T23:53:12.655Z,95281.86
2018-08-23T23:55:42.483Z,95277.91
2018-08-23T23:58:12.745Z,95278.91
